sensor_id;sensor_type;location;lat;lon;timestamp;P1;durP1;ratioP1;P2;durP2;ratioP2
18649;SDS011;9454;53.516;10.478;2024-02-21T00:02:45;34.35;;;8.18;;
18649;SDS011;9454;53.516;10.478;2024-02-21T00:05:49;25.38;;;7.35;;
18649;SDS011;9454;53.516;10.478;2024-02-21T00:08:54;22.65;;;7.10;;
18649;SDS011;9454;53.516;10.478;2024-02-21T00:12:08;18.10;;;6.60;;
18649;SDS011;9454;53.516;10.478;2024-02-21T00:15:12;17.10;;;6.43;;
18649;SDS011;9454;53.516;10.478;2024-02-21T00:18:19;28.90;;;7.20;;
18649;SDS011;9454;53.516;10.478;2024-02-21T00:21:32;29.63;;;7.35;;
18649;SDS011;9454;53.516;10.478;2024-02-21T00:24:36;27.67;;;7.70;;
18649;SDS011;9454;53.516;10.478;2024-02-21T00:27:41;20.88;;;7.35;;
18649;SDS011;9454;53.516;10.478;2024-02-21T00:30:46;27.67;;;7.80;;
18649;SDS011;9454;53.516;10.478;2024-02-21T00:33:51;23.25;;;7.05;;
18649;SDS011;9454;53.516;10.478;2024-02-21T00:36:55;19.10;;;6.40;;
18649;SDS011;9454;53.516;10.478;2024-02-21T00:39:58;17.60;;;7.75;;
18649;SDS011;9454;53.516;10.478;2024-02-21T00:43:06;30.02;;;7.78;;
18649;SDS011;9454;53.516;10.478;2024-02-21T00:46:10;26.33;;;8.13;;
18649;SDS011;9454;53.516;10.478;2024-02-21T00:49:17;19.45;;;6.25;;
18649;SDS011;9454;53.516;10.478;2024-02-21T00:52:21;20.73;;;7.30;;
18649;SDS011;9454;53.516;10.478;2024-02-21T00:55:24;18.50;;;7.60;;
18649;SDS011;9454;53.516;10.478;2024-02-21T00:58:29;23.85;;;7.40;;
18649;SDS011;9454;53.516;10.478;2024-02-21T01:01:35;22.15;;;7.55;;
18649;SDS011;9454;53.516;10.478;2024-02-21T01:04:38;24.70;;;7.43;;
18649;SDS011;9454;53.516;10.478;2024-02-21T01:07:44;20.27;;;6.95;;
18649;SDS011;9454;53.516;10.478;2024-02-21T01:10:48;23.13;;;7.20;;
18649;SDS011;9454;53.516;10.478;2024-02-21T01:13:54;19.05;;;6.72;;
18649;SDS011;9454;53.516;10.478;2024-02-21T01:17:03;21.30;;;7.88;;
18649;SDS011;9454;53.516;10.478;2024-02-21T01:20:10;23.63;;;7.13;;
18649;SDS011;9454;53.516;10.478;2024-02-21T01:23:14;22.00;;;7.45;;
18649;SDS011;9454;53.516;10.478;2024-02-21T01:26:20;16.73;;;6.35;;
18649;SDS011;9454;53.516;10.478;2024-02-21T01:29:26;13.60;;;6.97;;
18649;SDS011;9454;53.516;10.478;2024-02-21T01:32:30;28.33;;;7.63;;
18649;SDS011;9454;53.516;10.478;2024-02-21T01:35:34;19.15;;;7.45;;
18649;SDS011;9454;53.516;10.478;2024-02-21T01:38:40;23.00;;;8.35;;
18649;SDS011;9454;53.516;10.478;2024-02-21T01:41:44;17.95;;;7.63;;
18649;SDS011;9454;53.516;10.478;2024-02-21T01:44:49;21.48;;;8.27;;
18649;SDS011;9454;53.516;10.478;2024-02-21T01:47:52;15.32;;;7.50;;
18649;SDS011;9454;53.516;10.478;2024-02-21T01:50:56;24.35;;;8.82;;
18649;SDS011;9454;53.516;10.478;2024-02-21T01:54:00;26.60;;;8.18;;
18649;SDS011;9454;53.516;10.478;2024-02-21T01:57:04;20.80;;;8.38;;
18649;SDS011;9454;53.516;10.478;2024-02-21T02:00:13;19.92;;;8.40;;
18649;SDS011;9454;53.516;10.478;2024-02-21T02:03:18;25.48;;;8.65;;
18649;SDS011;9454;53.516;10.478;2024-02-21T02:06:21;21.33;;;8.25;;
18649;SDS011;9454;53.516;10.478;2024-02-21T02:09:25;21.42;;;8.07;;
18649;SDS011;9454;53.516;10.478;2024-02-21T02:12:29;16.33;;;7.72;;
18649;SDS011;9454;53.516;10.478;2024-02-21T02:15:40;19.92;;;7.85;;
18649;SDS011;9454;53.516;10.478;2024-02-21T02:19:39;23.55;;;6.95;;
18649;SDS011;9454;53.516;10.478;2024-02-21T02:23:09;21.30;;;7.22;;
18649;SDS011;9454;53.516;10.478;2024-02-21T02:26:42;23.00;;;8.52;;
18649;SDS011;9454;53.516;10.478;2024-02-21T02:30:04;18.98;;;7.90;;
18649;SDS011;9454;53.516;10.478;2024-02-21T02:33:33;21.35;;;7.65;;
18649;SDS011;9454;53.516;10.478;2024-02-21T02:36:40;22.13;;;8.50;;
18649;SDS011;9454;53.516;10.478;2024-02-21T02:39:47;16.08;;;7.60;;
18649;SDS011;9454;53.516;10.478;2024-02-21T02:42:55;27.77;;;8.38;;
18649;SDS011;9454;53.516;10.478;2024-02-21T02:45:59;15.93;;;7.72;;
18649;SDS011;9454;53.516;10.478;2024-02-21T02:49:03;18.90;;;7.25;;
18649;SDS011;9454;53.516;10.478;2024-02-21T02:52:08;22.05;;;8.68;;
18649;SDS011;9454;53.516;10.478;2024-02-21T02:55:12;20.23;;;8.10;;
18649;SDS011;9454;53.516;10.478;2024-02-21T02:58:18;22.25;;;8.02;;
18649;SDS011;9454;53.516;10.478;2024-02-21T03:01:21;20.45;;;8.73;;
18649;SDS011;9454;53.516;10.478;2024-02-21T03:04:26;25.00;;;9.52;;
18649;SDS011;9454;53.516;10.478;2024-02-21T03:07:30;19.23;;;9.18;;
18649;SDS011;9454;53.516;10.478;2024-02-21T03:10:34;25.00;;;9.07;;
18649;SDS011;9454;53.516;10.478;2024-02-21T03:13:40;19.13;;;8.43;;
18649;SDS011;9454;53.516;10.478;2024-02-21T03:16:46;19.17;;;8.52;;
18649;SDS011;9454;53.516;10.478;2024-02-21T03:19:49;23.65;;;9.85;;
18649;SDS011;9454;53.516;10.478;2024-02-21T03:22:54;24.98;;;9.82;;
18649;SDS011;9454;53.516;10.478;2024-02-21T03:25:58;20.05;;;8.50;;
18649;SDS011;9454;53.516;10.478;2024-02-21T03:29:03;24.08;;;9.38;;
18649;SDS011;9454;53.516;10.478;2024-02-21T03:32:06;26.50;;;9.82;;
18649;SDS011;9454;53.516;10.478;2024-02-21T03:35:10;30.55;;;10.15;;
18649;SDS011;9454;53.516;10.478;2024-02-21T03:38:13;25.48;;;9.35;;
18649;SDS011;9454;53.516;10.478;2024-02-21T03:41:17;30.85;;;9.65;;
18649;SDS011;9454;53.516;10.478;2024-02-21T03:44:25;22.92;;;9.85;;
18649;SDS011;9454;53.516;10.478;2024-02-21T03:47:28;25.73;;;10.02;;
18649;SDS011;9454;53.516;10.478;2024-02-21T03:50:34;34.53;;;10.32;;
18649;SDS011;9454;53.516;10.478;2024-02-21T03:53:38;26.85;;;9.98;;
18649;SDS011;9454;53.516;10.478;2024-02-21T03:56:41;22.35;;;9.68;;
18649;SDS011;9454;53.516;10.478;2024-02-21T03:59:47;20.15;;;9.02;;
18649;SDS011;9454;53.516;10.478;2024-02-21T04:02:55;28.33;;;9.07;;
18649;SDS011;9454;53.516;10.478;2024-02-21T04:05:58;21.90;;;9.10;;
18649;SDS011;9454;53.516;10.478;2024-02-21T04:09:02;22.55;;;9.13;;
18649;SDS011;9454;53.516;10.478;2024-02-21T04:12:07;32.50;;;10.38;;
18649;SDS011;9454;53.516;10.478;2024-02-21T04:15:13;36.97;;;10.10;;
18649;SDS011;9454;53.516;10.478;2024-02-21T04:18:17;22.33;;;10.05;;
18649;SDS011;9454;53.516;10.478;2024-02-21T04:21:23;25.20;;;8.98;;
18649;SDS011;9454;53.516;10.478;2024-02-21T04:24:26;27.42;;;8.98;;
18649;SDS011;9454;53.516;10.478;2024-02-21T04:27:33;24.75;;;9.13;;
18649;SDS011;9454;53.516;10.478;2024-02-21T04:30:38;21.88;;;9.07;;
18649;SDS011;9454;53.516;10.478;2024-02-21T04:33:42;28.88;;;9.68;;
18649;SDS011;9454;53.516;10.478;2024-02-21T04:36:46;22.77;;;9.80;;
18649;SDS011;9454;53.516;10.478;2024-02-21T04:39:54;21.42;;;8.70;;
18649;SDS011;9454;53.516;10.478;2024-02-21T04:42:58;29.52;;;10.27;;
18649;SDS011;9454;53.516;10.478;2024-02-21T04:46:04;26.95;;;9.77;;
18649;SDS011;9454;53.516;10.478;2024-02-21T04:49:08;29.83;;;9.77;;
18649;SDS011;9454;53.516;10.478;2024-02-21T04:52:12;24.70;;;9.00;;
18649;SDS011;9454;53.516;10.478;2024-02-21T04:55:16;21.33;;;8.85;;
18649;SDS011;9454;53.516;10.478;2024-02-21T04:58:20;25.83;;;8.18;;
18649;SDS011;9454;53.516;10.478;2024-02-21T05:01:25;24.88;;;9.20;;
18649;SDS011;9454;53.516;10.478;2024-02-21T05:04:29;20.90;;;8.43;;
18649;SDS011;9454;53.516;10.478;2024-02-21T05:07:34;18.30;;;8.45;;
18649;SDS011;9454;53.516;10.478;2024-02-21T05:10:38;23.63;;;8.93;;
18649;SDS011;9454;53.516;10.478;2024-02-21T05:13:42;25.13;;;8.90;;
18649;SDS011;9454;53.516;10.478;2024-02-21T05:16:49;22.25;;;9.15;;
18649;SDS011;9454;53.516;10.478;2024-02-21T05:19:55;21.55;;;8.50;;
18649;SDS011;9454;53.516;10.478;2024-02-21T05:23:00;19.65;;;7.78;;
18649;SDS011;9454;53.516;10.478;2024-02-21T05:26:03;19.10;;;7.90;;
18649;SDS011;9454;53.516;10.478;2024-02-21T05:29:09;16.83;;;7.38;;
18649;SDS011;9454;53.516;10.478;2024-02-21T05:32:14;19.17;;;7.75;;
18649;SDS011;9454;53.516;10.478;2024-02-21T05:35:24;13.50;;;7.07;;
18649;SDS011;9454;53.516;10.478;2024-02-21T05:38:28;15.75;;;6.78;;
18649;SDS011;9454;53.516;10.478;2024-02-21T05:41:33;14.60;;;7.15;;
18649;SDS011;9454;53.516;10.478;2024-02-21T05:44:39;18.17;;;6.68;;
18649;SDS011;9454;53.516;10.478;2024-02-21T05:47:44;14.02;;;6.60;;
18649;SDS011;9454;53.516;10.478;2024-02-21T05:50:48;15.10;;;6.07;;
18649;SDS011;9454;53.516;10.478;2024-02-21T05:53:53;14.85;;;6.55;;
18649;SDS011;9454;53.516;10.478;2024-02-21T05:56:58;12.35;;;6.05;;
18649;SDS011;9454;53.516;10.478;2024-02-21T06:00:05;13.85;;;6.30;;
18649;SDS011;9454;53.516;10.478;2024-02-21T06:03:16;15.48;;;6.47;;
18649;SDS011;9454;53.516;10.478;2024-02-21T06:06:19;12.35;;;6.03;;
18649;SDS011;9454;53.516;10.478;2024-02-21T06:09:32;15.93;;;6.65;;
18649;SDS011;9454;53.516;10.478;2024-02-21T06:12:36;14.30;;;6.00;;
18649;SDS011;9454;53.516;10.478;2024-02-21T06:15:39;11.27;;;5.25;;
18649;SDS011;9454;53.516;10.478;2024-02-21T06:18:44;13.40;;;5.60;;
18649;SDS011;9454;53.516;10.478;2024-02-21T06:21:52;16.00;;;6.50;;
18649;SDS011;9454;53.516;10.478;2024-02-21T06:24:55;11.73;;;5.78;;
18649;SDS011;9454;53.516;10.478;2024-02-21T06:27:59;10.55;;;5.15;;
18649;SDS011;9454;53.516;10.478;2024-02-21T06:31:03;11.57;;;5.45;;
18649;SDS011;9454;53.516;10.478;2024-02-21T06:34:11;12.00;;;6.00;;
18649;SDS011;9454;53.516;10.478;2024-02-21T06:37:15;9.63;;;5.18;;
18649;SDS011;9454;53.516;10.478;2024-02-21T06:40:20;13.38;;;5.53;;
18649;SDS011;9454;53.516;10.478;2024-02-21T06:43:24;9.95;;;5.63;;
18649;SDS011;9454;53.516;10.478;2024-02-21T06:46:29;8.38;;;4.95;;
18649;SDS011;9454;53.516;10.478;2024-02-21T06:49:37;9.80;;;4.78;;
18649;SDS011;9454;53.516;10.478;2024-02-21T06:52:46;7.85;;;4.88;;
18649;SDS011;9454;53.516;10.478;2024-02-21T06:55:50;10.02;;;4.10;;
18649;SDS011;9454;53.516;10.478;2024-02-21T06:58:53;9.98;;;4.38;;
18649;SDS011;9454;53.516;10.478;2024-02-21T07:01:57;8.07;;;4.55;;
18649;SDS011;9454;53.516;10.478;2024-02-21T07:05:04;9.90;;;4.32;;
18649;SDS011;9454;53.516;10.478;2024-02-21T07:08:07;8.27;;;3.47;;
18649;SDS011;9454;53.516;10.478;2024-02-21T07:11:11;9.55;;;3.55;;
18649;SDS011;9454;53.516;10.478;2024-02-21T07:14:15;7.10;;;3.60;;
18649;SDS011;9454;53.516;10.478;2024-02-21T07:17:32;9.32;;;3.35;;
18649;SDS011;9454;53.516;10.478;2024-02-21T07:24:14;4.88;;;3.03;;
18649;SDS011;9454;53.516;10.478;2024-02-21T07:27:17;6.20;;;3.17;;
18649;SDS011;9454;53.516;10.478;2024-02-21T07:30:22;5.47;;;3.42;;
18649;SDS011;9454;53.516;10.478;2024-02-21T07:33:25;7.93;;;3.60;;
18649;SDS011;9454;53.516;10.478;2024-02-21T07:36:30;5.88;;;3.42;;
18649;SDS011;9454;53.516;10.478;2024-02-21T07:39:36;5.45;;;3.30;;
18649;SDS011;9454;53.516;10.478;2024-02-21T07:42:40;8.00;;;3.75;;
18649;SDS011;9454;53.516;10.478;2024-02-21T07:45:46;6.32;;;3.42;;
18649;SDS011;9454;53.516;10.478;2024-02-21T07:48:50;5.70;;;3.60;;
18649;SDS011;9454;53.516;10.478;2024-02-21T07:51:55;7.70;;;4.03;;
18649;SDS011;9454;53.516;10.478;2024-02-21T07:55:03;8.57;;;3.72;;
18649;SDS011;9454;53.516;10.478;2024-02-21T07:58:06;6.22;;;2.92;;
18649;SDS011;9454;53.516;10.478;2024-02-21T08:01:20;4.30;;;3.10;;
18649;SDS011;9454;53.516;10.478;2024-02-21T08:04:29;4.53;;;2.72;;
18649;SDS011;9454;53.516;10.478;2024-02-21T08:07:37;6.05;;;2.47;;
18649;SDS011;9454;53.516;10.478;2024-02-21T08:10:42;4.10;;;2.50;;
18649;SDS011;9454;53.516;10.478;2024-02-21T08:13:47;3.50;;;2.47;;
18649;SDS011;9454;53.516;10.478;2024-02-21T08:16:51;3.92;;;2.25;;
18649;SDS011;9454;53.516;10.478;2024-02-21T08:19:56;3.75;;;1.90;;
18649;SDS011;9454;53.516;10.478;2024-02-21T08:23:00;2.28;;;1.63;;
18649;SDS011;9454;53.516;10.478;2024-02-21T08:26:06;2.33;;;1.60;;
18649;SDS011;9454;53.516;10.478;2024-02-21T08:29:10;3.33;;;2.00;;
18649;SDS011;9454;53.516;10.478;2024-02-21T08:32:18;3.70;;;2.20;;
18649;SDS011;9454;53.516;10.478;2024-02-21T08:35:22;2.72;;;2.10;;
18649;SDS011;9454;53.516;10.478;2024-02-21T08:38:26;2.97;;;1.70;;
18649;SDS011;9454;53.516;10.478;2024-02-21T08:41:31;2.53;;;1.70;;
18649;SDS011;9454;53.516;10.478;2024-02-21T08:44:55;5.60;;;1.90;;
18649;SDS011;9454;53.516;10.478;2024-02-21T08:47:59;2.03;;;1.52;;
18649;SDS011;9454;53.516;10.478;2024-02-21T08:51:03;2.40;;;1.85;;
18649;SDS011;9454;53.516;10.478;2024-02-21T08:54:07;3.10;;;1.88;;
18649;SDS011;9454;53.516;10.478;2024-02-21T08:57:12;1.42;;;1.23;;
18649;SDS011;9454;53.516;10.478;2024-02-21T09:00:17;1.70;;;1.58;;
18649;SDS011;9454;53.516;10.478;2024-02-21T09:03:26;2.38;;;1.60;;
18649;SDS011;9454;53.516;10.478;2024-02-21T09:06:47;3.92;;;1.58;;
18649;SDS011;9454;53.516;10.478;2024-02-21T09:09:52;3.22;;;1.40;;
18649;SDS011;9454;53.516;10.478;2024-02-21T09:12:57;2.42;;;1.50;;
18649;SDS011;9454;53.516;10.478;2024-02-21T09:16:01;2.15;;;1.13;;
18649;SDS011;9454;53.516;10.478;2024-02-21T09:19:05;7.05;;;1.35;;
18649;SDS011;9454;53.516;10.478;2024-02-21T09:22:12;2.15;;;0.80;;
18649;SDS011;9454;53.516;10.478;2024-02-21T09:25:16;1.13;;;0.90;;
18649;SDS011;9454;53.516;10.478;2024-02-21T09:28:22;1.45;;;0.90;;
18649;SDS011;9454;53.516;10.478;2024-02-21T09:31:25;4.80;;;0.80;;
18649;SDS011;9454;53.516;10.478;2024-02-21T09:34:32;1.90;;;0.90;;
18649;SDS011;9454;53.516;10.478;2024-02-21T09:37:36;4.18;;;1.10;;
18649;SDS011;9454;53.516;10.478;2024-02-21T09:40:40;1.75;;;1.00;;
18649;SDS011;9454;53.516;10.478;2024-02-21T09:43:45;2.25;;;0.90;;
18649;SDS011;9454;53.516;10.478;2024-02-21T09:47:02;2.42;;;0.80;;
18649;SDS011;9454;53.516;10.478;2024-02-21T09:50:24;2.45;;;1.00;;
18649;SDS011;9454;53.516;10.478;2024-02-21T09:53:29;4.10;;;1.40;;
18649;SDS011;9454;53.516;10.478;2024-02-21T09:56:33;3.17;;;1.05;;
18649;SDS011;9454;53.516;10.478;2024-02-21T09:59:38;2.72;;;1.10;;
18649;SDS011;9454;53.516;10.478;2024-02-21T10:02:43;1.95;;;0.90;;
18649;SDS011;9454;53.516;10.478;2024-02-21T10:05:47;5.78;;;1.00;;
18649;SDS011;9454;53.516;10.478;2024-02-21T10:08:54;3.33;;;1.13;;
18649;SDS011;9454;53.516;10.478;2024-02-21T10:12:07;4.47;;;0.90;;
18649;SDS011;9454;53.516;10.478;2024-02-21T10:15:20;1.73;;;0.90;;
18649;SDS011;9454;53.516;10.478;2024-02-21T10:18:26;3.45;;;1.45;;
18649;SDS011;9454;53.516;10.478;2024-02-21T10:21:32;1.65;;;0.82;;
18649;SDS011;9454;53.516;10.478;2024-02-21T10:24:36;4.43;;;1.15;;
18649;SDS011;9454;53.516;10.478;2024-02-21T10:27:43;3.05;;;1.25;;
18649;SDS011;9454;53.516;10.478;2024-02-21T10:30:51;2.38;;;1.08;;
18649;SDS011;9454;53.516;10.478;2024-02-21T10:33:57;3.17;;;1.75;;
18649;SDS011;9454;53.516;10.478;2024-02-21T10:37:02;3.75;;;1.98;;
18649;SDS011;9454;53.516;10.478;2024-02-21T10:40:06;4.85;;;3.03;;
18649;SDS011;9454;53.516;10.478;2024-02-21T10:43:11;6.25;;;3.47;;
18649;SDS011;9454;53.516;10.478;2024-02-21T10:46:18;7.88;;;3.47;;
18649;SDS011;9454;53.516;10.478;2024-02-21T10:49:22;11.15;;;4.78;;
18649;SDS011;9454;53.516;10.478;2024-02-21T10:52:32;6.82;;;4.18;;
18649;SDS011;9454;53.516;10.478;2024-02-21T10:55:56;10.55;;;4.63;;
18649;SDS011;9454;53.516;10.478;2024-02-21T10:59:07;8.15;;;4.85;;
18649;SDS011;9454;53.516;10.478;2024-02-21T11:02:13;10.52;;;5.18;;
18649;SDS011;9454;53.516;10.478;2024-02-21T11:05:17;17.10;;;5.20;;
18649;SDS011;9454;53.516;10.478;2024-02-21T11:08:22;10.55;;;5.65;;
18649;SDS011;9454;53.516;10.478;2024-02-21T11:11:34;9.38;;;4.93;;
18649;SDS011;9454;53.516;10.478;2024-02-21T11:14:41;18.92;;;5.93;;
18649;SDS011;9454;53.516;10.478;2024-02-21T11:17:55;9.57;;;5.05;;
18649;SDS011;9454;53.516;10.478;2024-02-21T11:21:06;14.68;;;6.07;;
18649;SDS011;9454;53.516;10.478;2024-02-21T11:24:11;12.98;;;5.75;;
18649;SDS011;9454;53.516;10.478;2024-02-21T11:27:23;13.55;;;6.18;;
18649;SDS011;9454;53.516;10.478;2024-02-21T11:30:36;20.48;;;5.72;;
18649;SDS011;9454;53.516;10.478;2024-02-21T11:34:17;17.90;;;6.13;;
18649;SDS011;9454;53.516;10.478;2024-02-21T11:37:23;15.45;;;6.18;;
18649;SDS011;9454;53.516;10.478;2024-02-21T11:40:29;13.95;;;5.45;;
18649;SDS011;9454;53.516;10.478;2024-02-21T11:43:33;14.18;;;5.55;;
18649;SDS011;9454;53.516;10.478;2024-02-21T11:46:37;12.98;;;4.70;;
18649;SDS011;9454;53.516;10.478;2024-02-21T11:49:44;11.77;;;5.72;;
18649;SDS011;9454;53.516;10.478;2024-02-21T11:52:55;13.38;;;5.65;;
18649;SDS011;9454;53.516;10.478;2024-02-21T11:55:59;11.02;;;5.22;;
18649;SDS011;9454;53.516;10.478;2024-02-21T11:59:03;12.95;;;5.63;;
18649;SDS011;9454;53.516;10.478;2024-02-21T12:02:08;12.13;;;5.15;;
18649;SDS011;9454;53.516;10.478;2024-02-21T12:05:13;19.58;;;4.72;;
18649;SDS011;9454;53.516;10.478;2024-02-21T12:08:17;13.10;;;5.20;;
18649;SDS011;9454;53.516;10.478;2024-02-21T12:11:22;9.23;;;4.00;;
18649;SDS011;9454;53.516;10.478;2024-02-21T12:14:27;16.35;;;4.40;;
18649;SDS011;9454;53.516;10.478;2024-02-21T12:17:35;13.40;;;5.30;;
18649;SDS011;9454;53.516;10.478;2024-02-21T12:20:41;8.52;;;5.07;;
18649;SDS011;9454;53.516;10.478;2024-02-21T12:27:51;10.23;;;3.78;;
18649;SDS011;9454;53.516;10.478;2024-02-21T12:30:56;8.38;;;4.10;;
18649;SDS011;9454;53.516;10.478;2024-02-21T12:34:05;11.20;;;4.30;;
18649;SDS011;9454;53.516;10.478;2024-02-21T12:37:42;10.95;;;4.10;;
18649;SDS011;9454;53.516;10.478;2024-02-21T12:40:47;15.43;;;5.32;;
18649;SDS011;9454;53.516;10.478;2024-02-21T12:43:51;18.52;;;4.50;;
18649;SDS011;9454;53.516;10.478;2024-02-21T12:46:55;10.75;;;4.72;;
18649;SDS011;9454;53.516;10.478;2024-02-21T12:49:59;10.05;;;4.57;;
18649;SDS011;9454;53.516;10.478;2024-02-21T12:53:08;13.20;;;4.70;;
18649;SDS011;9454;53.516;10.478;2024-02-21T12:56:23;10.23;;;4.85;;
18649;SDS011;9454;53.516;10.478;2024-02-21T12:59:28;13.77;;;4.78;;
18649;SDS011;9454;53.516;10.478;2024-02-21T13:02:32;8.38;;;4.47;;
18649;SDS011;9454;53.516;10.478;2024-02-21T13:05:36;10.50;;;4.97;;
18649;SDS011;9454;53.516;10.478;2024-02-21T13:08:41;14.32;;;5.55;;
18649;SDS011;9454;53.516;10.478;2024-02-21T13:11:46;9.32;;;4.88;;
18649;SDS011;9454;53.516;10.478;2024-02-21T13:14:52;9.75;;;4.90;;
18649;SDS011;9454;53.516;10.478;2024-02-21T13:17:56;10.20;;;5.43;;
18649;SDS011;9454;53.516;10.478;2024-02-21T13:21:00;10.52;;;5.25;;
18649;SDS011;9454;53.516;10.478;2024-02-21T13:24:09;19.33;;;5.65;;
18649;SDS011;9454;53.516;10.478;2024-02-21T13:27:12;11.75;;;6.30;;
18649;SDS011;9454;53.516;10.478;2024-02-21T13:30:21;15.75;;;5.47;;
18649;SDS011;9454;53.516;10.478;2024-02-21T13:33:26;13.25;;;5.18;;
18649;SDS011;9454;53.516;10.478;2024-02-21T13:36:32;11.45;;;5.80;;
18649;SDS011;9454;53.516;10.478;2024-02-21T13:39:37;13.57;;;5.55;;
18649;SDS011;9454;53.516;10.478;2024-02-21T13:43:28;14.07;;;5.32;;
18649;SDS011;9454;53.516;10.478;2024-02-21T13:51:04;19.02;;;6.20;;
18649;SDS011;9454;53.516;10.478;2024-02-21T13:54:10;15.02;;;5.57;;
18649;SDS011;9454;53.516;10.478;2024-02-21T13:57:17;16.67;;;6.35;;
18649;SDS011;9454;53.516;10.478;2024-02-21T14:00:21;27.88;;;8.73;;
18649;SDS011;9454;53.516;10.478;2024-02-21T14:03:25;17.15;;;6.97;;
18649;SDS011;9454;53.516;10.478;2024-02-21T14:06:30;17.88;;;6.43;;
18649;SDS011;9454;53.516;10.478;2024-02-21T14:09:35;18.70;;;6.40;;
18649;SDS011;9454;53.516;10.478;2024-02-21T14:12:40;14.52;;;6.18;;
18649;SDS011;9454;53.516;10.478;2024-02-21T14:15:47;13.63;;;5.90;;
18649;SDS011;9454;53.516;10.478;2024-02-21T14:18:51;15.32;;;6.35;;
18649;SDS011;9454;53.516;10.478;2024-02-21T14:21:57;17.58;;;6.47;;
18649;SDS011;9454;53.516;10.478;2024-02-21T14:25:00;10.35;;;5.10;;
18649;SDS011;9454;53.516;10.478;2024-02-21T14:28:09;14.32;;;6.28;;
18649;SDS011;9454;53.516;10.478;2024-02-21T14:31:13;16.98;;;6.20;;
18649;SDS011;9454;53.516;10.478;2024-02-21T14:34:18;15.10;;;5.88;;
18649;SDS011;9454;53.516;10.478;2024-02-21T14:37:22;11.35;;;5.47;;
18649;SDS011;9454;53.516;10.478;2024-02-21T14:40:26;15.48;;;5.20;;
18649;SDS011;9454;53.516;10.478;2024-02-21T14:43:33;10.57;;;5.18;;
18649;SDS011;9454;53.516;10.478;2024-02-21T14:46:38;13.43;;;5.53;;
18649;SDS011;9454;53.516;10.478;2024-02-21T14:49:42;10.50;;;4.93;;
18649;SDS011;9454;53.516;10.478;2024-02-21T14:52:47;7.80;;;4.88;;
18649;SDS011;9454;53.516;10.478;2024-02-21T14:55:51;8.48;;;4.85;;
18649;SDS011;9454;53.516;10.478;2024-02-21T14:58:56;13.05;;;5.35;;
18649;SDS011;9454;53.516;10.478;2024-02-21T15:02:12;13.70;;;5.47;;
18649;SDS011;9454;53.516;10.478;2024-02-21T15:05:18;12.93;;;4.53;;
18649;SDS011;9454;53.516;10.478;2024-02-21T15:08:22;14.60;;;4.85;;
18649;SDS011;9454;53.516;10.478;2024-02-21T15:11:29;14.82;;;4.95;;
18649;SDS011;9454;53.516;10.478;2024-02-21T15:14:34;13.07;;;4.38;;
18649;SDS011;9454;53.516;10.478;2024-02-21T15:17:38;8.10;;;4.25;;
18649;SDS011;9454;53.516;10.478;2024-02-21T15:20:42;10.90;;;3.72;;
18649;SDS011;9454;53.516;10.478;2024-02-21T15:23:47;10.20;;;3.65;;
18649;SDS011;9454;53.516;10.478;2024-02-21T15:26:51;8.73;;;3.53;;
18649;SDS011;9454;53.516;10.478;2024-02-21T15:29:57;12.55;;;3.55;;
18649;SDS011;9454;53.516;10.478;2024-02-21T15:33:01;9.85;;;3.42;;
18649;SDS011;9454;53.516;10.478;2024-02-21T15:36:07;11.10;;;3.83;;
18649;SDS011;9454;53.516;10.478;2024-02-21T15:39:11;10.07;;;4.00;;
18649;SDS011;9454;53.516;10.478;2024-02-21T15:42:16;13.20;;;3.97;;
18649;SDS011;9454;53.516;10.478;2024-02-21T15:45:21;15.80;;;3.25;;
18649;SDS011;9454;53.516;10.478;2024-02-21T15:48:25;9.60;;;3.92;;
18649;SDS011;9454;53.516;10.478;2024-02-21T15:51:29;6.55;;;3.72;;
18649;SDS011;9454;53.516;10.478;2024-02-21T15:54:44;7.88;;;2.83;;
18649;SDS011;9454;53.516;10.478;2024-02-21T15:57:47;8.43;;;3.10;;
18649;SDS011;9454;53.516;10.478;2024-02-21T16:00:57;9.45;;;3.05;;
18649;SDS011;9454;53.516;10.478;2024-02-21T16:04:01;7.20;;;2.92;;
18649;SDS011;9454;53.516;10.478;2024-02-21T16:07:05;7.70;;;3.30;;
18649;SDS011;9454;53.516;10.478;2024-02-21T16:10:09;7.97;;;2.83;;
18649;SDS011;9454;53.516;10.478;2024-02-21T16:13:13;8.02;;;3.03;;
18649;SDS011;9454;53.516;10.478;2024-02-21T16:16:18;13.98;;;3.10;;
18649;SDS011;9454;53.516;10.478;2024-02-21T16:19:22;12.50;;;2.47;;
18649;SDS011;9454;53.516;10.478;2024-02-21T16:22:26;7.97;;;2.67;;
18649;SDS011;9454;53.516;10.478;2024-02-21T16:25:30;7.60;;;3.05;;
18649;SDS011;9454;53.516;10.478;2024-02-21T16:28:37;6.50;;;2.20;;
18649;SDS011;9454;53.516;10.478;2024-02-21T16:31:42;5.05;;;2.40;;
18649;SDS011;9454;53.516;10.478;2024-02-21T16:34:46;5.00;;;2.50;;
18649;SDS011;9454;53.516;10.478;2024-02-21T16:38:00;9.68;;;2.55;;
18649;SDS011;9454;53.516;10.478;2024-02-21T16:41:05;10.15;;;2.70;;
18649;SDS011;9454;53.516;10.478;2024-02-21T16:44:13;12.27;;;3.08;;
18649;SDS011;9454;53.516;10.478;2024-02-21T16:47:22;5.35;;;2.80;;
18649;SDS011;9454;53.516;10.478;2024-02-21T16:50:26;6.82;;;3.30;;
18649;SDS011;9454;53.516;10.478;2024-02-21T16:53:31;5.97;;;2.45;;
18649;SDS011;9454;53.516;10.478;2024-02-21T16:56:35;3.78;;;2.47;;
18649;SDS011;9454;53.516;10.478;2024-02-21T16:59:39;7.80;;;3.00;;
18649;SDS011;9454;53.516;10.478;2024-02-21T17:02:44;10.77;;;3.28;;
18649;SDS011;9454;53.516;10.478;2024-02-21T17:05:59;6.72;;;2.42;;
18649;SDS011;9454;53.516;10.478;2024-02-21T17:09:16;7.63;;;2.70;;
18649;SDS011;9454;53.516;10.478;2024-02-21T17:12:21;7.00;;;3.50;;
18649;SDS011;9454;53.516;10.478;2024-02-21T17:15:24;6.22;;;2.47;;
18649;SDS011;9454;53.516;10.478;2024-02-21T17:18:30;3.97;;;2.33;;
18649;SDS011;9454;53.516;10.478;2024-02-21T17:21:33;9.23;;;2.25;;
18649;SDS011;9454;53.516;10.478;2024-02-21T17:24:37;6.18;;;2.13;;
18649;SDS011;9454;53.516;10.478;2024-02-21T17:27:41;8.85;;;3.25;;
18649;SDS011;9454;53.516;10.478;2024-02-21T17:30:46;10.88;;;2.92;;
18649;SDS011;9454;53.516;10.478;2024-02-21T17:33:51;5.63;;;2.60;;
18649;SDS011;9454;53.516;10.478;2024-02-21T17:36:55;6.53;;;2.60;;
18649;SDS011;9454;53.516;10.478;2024-02-21T17:39:58;6.10;;;2.10;;
18649;SDS011;9454;53.516;10.478;2024-02-21T17:43:05;4.55;;;2.38;;
18649;SDS011;9454;53.516;10.478;2024-02-21T17:46:09;3.90;;;2.25;;
18649;SDS011;9454;53.516;10.478;2024-02-21T17:49:16;7.85;;;2.33;;
18649;SDS011;9454;53.516;10.478;2024-02-21T17:52:22;4.63;;;2.20;;
18649;SDS011;9454;53.516;10.478;2024-02-21T17:55:30;3.83;;;1.80;;
18649;SDS011;9454;53.516;10.478;2024-02-21T17:58:33;10.23;;;2.47;;
18649;SDS011;9454;53.516;10.478;2024-02-21T18:01:38;9.30;;;3.10;;
18649;SDS011;9454;53.516;10.478;2024-02-21T18:04:46;4.65;;;2.65;;
18649;SDS011;9454;53.516;10.478;2024-02-21T18:07:50;8.88;;;3.00;;
18649;SDS011;9454;53.516;10.478;2024-02-21T18:10:54;15.50;;;3.05;;
18649;SDS011;9454;53.516;10.478;2024-02-21T18:13:59;9.57;;;2.55;;
18649;SDS011;9454;53.516;10.478;2024-02-21T18:17:06;7.25;;;2.70;;
18649;SDS011;9454;53.516;10.478;2024-02-21T18:20:13;7.57;;;3.17;;
18649;SDS011;9454;53.516;10.478;2024-02-21T18:23:17;9.45;;;3.47;;
18649;SDS011;9454;53.516;10.478;2024-02-21T18:26:22;10.70;;;3.72;;
18649;SDS011;9454;53.516;10.478;2024-02-21T18:29:25;6.57;;;3.20;;
18649;SDS011;9454;53.516;10.478;2024-02-21T18:32:41;11.65;;;3.05;;
18649;SDS011;9454;53.516;10.478;2024-02-21T18:35:47;13.10;;;3.53;;
18649;SDS011;9454;53.516;10.478;2024-02-21T18:38:52;12.02;;;3.55;;
18649;SDS011;9454;53.516;10.478;2024-02-21T18:41:56;10.75;;;3.10;;
18649;SDS011;9454;53.516;10.478;2024-02-21T18:44:59;7.38;;;4.00;;